createdAt,value
2017-02-12T00:00:05.063Z,73449
2017-02-12T00:00:15.583Z,73447
2017-02-12T00:00:26.103Z,73449
2017-02-12T00:00:36.625Z,73448
2017-02-12T00:00:47.203Z,73448
2017-02-12T00:00:57.721Z,73442
2017-02-12T00:01:08.257Z,73444
2017-02-12T00:01:18.411Z,73447
2017-02-12T00:01:28.928Z,73446
2017-02-12T00:01:39.447Z,73447
2017-02-12T00:01:49.965Z,73446
2017-02-12T00:02:00.505Z,73444
2017-02-12T00:02:10.274Z,73443
2017-02-12T00:02:20.783Z,73445
2017-02-12T00:02:30.934Z,73446
2017-02-12T00:02:41.457Z,73446
2017-02-12T00:02:51.973Z,73450
2017-02-12T00:03:02.499Z,73449
2017-02-12T00:03:12.654Z,73444
2017-02-12T00:03:22.803Z,73449
2017-02-12T00:03:33.341Z,73444
2017-02-12T00:03:43.861Z,73447
2017-02-12T00:03:54.396Z,73446
2017-02-12T00:04:04.914Z,73445
2017-02-12T00:04:15.432Z,73444
2017-02-12T00:04:25.946Z,73446
2017-02-12T00:04:36.466Z,73446
2017-02-12T00:04:46.993Z,73446
2017-02-12T00:04:57.515Z,73447
2017-02-12T00:05:08.041Z,73448
2017-02-12T00:05:18.180Z,73447
2017-02-12T00:05:28.693Z,73451
2017-02-12T00:05:38.845Z,73448
2017-02-12T00:05:49.372Z,73449
2017-02-12T00:05:59.886Z,73449
2017-02-12T00:06:10.389Z,73445
2017-02-12T00:06:20.522Z,73448
2017-02-12T00:06:31.061Z,73447
2017-02-12T00:06:41.588Z,73444
2017-02-12T00:06:51.732Z,73446
2017-02-12T00:07:02.266Z,73450
2017-02-12T00:07:12.416Z,73451
2017-02-12T00:07:22.564Z,73449
2017-02-12T00:07:33.093Z,73447
2017-02-12T00:07:43.612Z,73450
2017-02-12T00:07:54.130Z,73452
2017-02-12T00:08:04.652Z,73452
2017-02-12T00:08:14.809Z,73451
2017-02-12T00:08:25.318Z,73454
2017-02-12T00:08:35.830Z,73452
2017-02-12T00:08:46.359Z,73455
2017-02-12T00:08:56.879Z,73454
2017-02-12T00:09:07.394Z,73457
2017-02-12T00:09:17.546Z,73454
2017-02-12T00:09:28.067Z,73457
2017-02-12T00:09:38.223Z,73454
2017-02-12T00:09:48.741Z,73458
2017-02-12T00:09:59.260Z,73454
2017-02-12T00:10:09.419Z,73454
2017-02-12T00:10:19.939Z,73461
2017-02-12T00:10:30.468Z,73459
2017-02-12T00:10:40.979Z,73455
2017-02-12T00:10:51.504Z,73456
2017-02-12T00:11:02.037Z,73458
2017-02-12T00:11:12.569Z,73457
2017-02-12T00:11:23.080Z,73459
2017-02-12T00:11:33.615Z,73453
2017-02-12T00:11:44.143Z,73458
2017-02-12T00:11:54.658Z,73455
2017-02-12T00:12:05.171Z,73458
2017-02-12T00:12:15.357Z,73455
2017-02-12T00:12:25.872Z,73457
2017-02-12T00:12:36.398Z,73458
2017-02-12T00:12:46.916Z,73459
2017-02-12T00:12:57.449Z,73458
2017-02-12T00:13:07.598Z,73462
2017-02-12T00:13:18.128Z,73463
2017-02-12T00:13:28.645Z,73466
2017-02-12T00:13:38.802Z,73462
2017-02-12T00:13:49.368Z,73460
2017-02-12T00:13:59.883Z,73459
2017-02-12T00:14:10.392Z,73462
2017-02-12T00:14:20.545Z,73458
2017-02-12T00:14:30.696Z,73463
2017-02-12T00:14:41.220Z,73462
2017-02-12T00:14:51.730Z,73462
2017-02-12T00:15:02.245Z,73461
2017-02-12T00:15:12.761Z,73458
2017-02-12T00:15:23.289Z,73457
2017-02-12T00:15:33.444Z,73459
2017-02-12T00:15:43.979Z,73458
2017-02-12T00:15:54.518Z,73461
2017-02-12T00:16:05.045Z,73463
2017-02-12T00:16:15.549Z,73464
2017-02-12T00:16:26.076Z,73464
2017-02-12T00:16:36.234Z,73464
2017-02-12T00:16:46.759Z,73461
2017-02-12T00:16:57.284Z,73466
2017-02-12T00:17:07.808Z,73463
2017-02-12T00:17:18.346Z,73459
2017-02-12T00:17:28.873Z,73462
2017-02-12T00:17:39.399Z,73460
2017-02-12T00:17:49.921Z,73460
2017-02-12T00:18:00.438Z,73461
2017-02-12T00:18:10.956Z,73464
2017-02-12T00:18:21.478Z,73467
2017-02-12T00:18:32.001Z,73467
2017-02-12T00:18:42.575Z,73463
2017-02-12T00:18:53.103Z,73464
2017-02-12T00:19:03.629Z,73468
2017-02-12T00:19:13.776Z,73462
2017-02-12T00:19:24.291Z,73466
2017-02-12T00:19:34.814Z,73469
2017-02-12T00:19:44.960Z,73465
2017-02-12T00:19:55.494Z,73468
2017-02-12T00:20:05.647Z,73467
2017-02-12T00:20:15.799Z,73469
2017-02-12T00:20:26.300Z,73470
2017-02-12T00:20:36.860Z,73469
2017-02-12T00:20:47.367Z,73467
2017-02-12T00:20:57.891Z,73466
2017-02-12T00:21:08.422Z,73466
2017-02-12T00:21:18.960Z,73467
2017-02-12T00:21:29.489Z,73467
2017-02-12T00:21:40.002Z,73468
2017-02-12T00:21:50.536Z,73470
2017-02-12T00:22:01.048Z,73465
2017-02-12T00:22:10.830Z,73468
2017-02-12T00:22:21.351Z,73467
2017-02-12T00:22:31.870Z,73471
2017-02-12T00:22:42.399Z,73468
2017-02-12T00:22:52.918Z,73468
2017-02-12T00:23:03.445Z,73467
2017-02-12T00:23:13.975Z,73468
2017-02-12T00:23:24.486Z,73466
2017-02-12T00:23:35.056Z,73469
2017-02-12T00:23:45.576Z,73468
2017-02-12T00:23:56.102Z,73469
2017-02-12T00:24:06.621Z,73470
2017-02-12T00:24:16.763Z,73469
2017-02-12T00:24:27.280Z,73469
2017-02-12T00:24:37.426Z,73471
2017-02-12T00:24:47.574Z,73467
2017-02-12T00:24:57.733Z,73468
2017-02-12T00:25:07.880Z,73468
2017-02-12T00:25:18.388Z,73467
2017-02-12T00:25:28.910Z,73470
2017-02-12T00:25:39.443Z,73470
2017-02-12T00:25:49.971Z,73467
2017-02-12T00:26:00.490Z,73466
2017-02-12T00:26:10.645Z,73468
2017-02-12T00:26:20.806Z,73467
2017-02-12T00:26:31.327Z,73464
2017-02-12T00:26:41.848Z,73461
2017-02-12T00:26:51.997Z,73466
2017-02-12T00:27:02.514Z,73467
2017-02-12T00:27:13.038Z,73462
2017-02-12T00:27:23.557Z,73470
2017-02-12T00:27:34.074Z,73469
2017-02-12T00:27:44.236Z,73469
2017-02-12T00:27:54.783Z,73466
2017-02-12T00:28:05.349Z,73465
2017-02-12T00:28:15.509Z,73467
2017-02-12T00:28:25.663Z,73468
2017-02-12T00:28:36.184Z,73470
2017-02-12T00:28:46.745Z,73470
2017-02-12T00:28:57.266Z,73471
2017-02-12T00:29:07.407Z,73471
2017-02-12T00:29:17.175Z,73468
2017-02-12T00:29:27.330Z,73468
2017-02-12T00:29:37.468Z,73468
2017-02-12T00:29:47.987Z,73468
2017-02-12T00:29:58.513Z,73469
2017-02-12T00:30:08.292Z,73466
2017-02-12T00:30:18.435Z,73465
2017-02-12T00:30:28.961Z,73464
2017-02-12T00:30:39.496Z,73465
2017-02-12T00:30:50.059Z,73468
2017-02-12T00:31:00.587Z,73465
2017-02-12T00:31:10.733Z,73473
2017-02-12T00:31:21.262Z,73468
2017-02-12T00:31:31.776Z,73471
2017-02-12T00:31:42.291Z,73469
2017-02-12T00:31:52.793Z,73467
2017-02-12T00:32:03.326Z,73470
2017-02-12T00:32:13.094Z,73471
2017-02-12T00:32:23.659Z,73467
2017-02-12T00:32:34.201Z,73471
2017-02-12T00:32:44.735Z,73473
2017-02-12T00:32:54.875Z,73472
2017-02-12T00:33:05.386Z,73471
2017-02-12T00:33:15.963Z,73474
2017-02-12T00:33:26.479Z,73472
2017-02-12T00:33:37.007Z,73476
2017-02-12T00:33:47.533Z,73474
2017-02-12T00:33:58.042Z,73471
2017-02-12T00:34:08.195Z,73475
2017-02-12T00:34:18.351Z,73476
2017-02-12T00:34:28.866Z,73476
2017-02-12T00:34:39.373Z,73473
2017-02-12T00:34:49.928Z,73471
2017-02-12T00:35:00.449Z,73474
2017-02-12T00:35:10.648Z,73474
2017-02-12T00:35:20.807Z,73473
2017-02-12T00:35:30.962Z,73473
2017-02-12T00:35:41.483Z,73479
2017-02-12T00:35:52.012Z,73476
2017-02-12T00:36:02.531Z,73471
2017-02-12T00:36:12.686Z,73473
2017-02-12T00:36:23.227Z,73475
2017-02-12T00:36:33.737Z,73476
2017-02-12T00:36:44.255Z,73477
2017-02-12T00:36:54.790Z,73477
2017-02-12T00:37:05.325Z,73477
2017-02-12T00:37:15.487Z,73478
2017-02-12T00:37:26.000Z,73475
2017-02-12T00:37:36.530Z,73479
2017-02-12T00:37:47.050Z,73476
2017-02-12T00:37:57.569Z,73479
2017-02-12T00:38:08.117Z,73478
2017-02-12T00:38:17.878Z,73477
2017-02-12T00:38:28.385Z,73474
2017-02-12T00:38:38.905Z,73476
2017-02-12T00:38:49.425Z,73474
2017-02-12T00:38:59.943Z,73477
2017-02-12T00:39:10.109Z,73476
2017-02-12T00:39:20.622Z,73474
2017-02-12T00:39:31.140Z,73481
2017-02-12T00:39:41.658Z,73482
2017-02-12T00:39:52.168Z,73478
2017-02-12T00:40:02.684Z,73481
2017-02-12T00:40:13.210Z,73479
2017-02-12T00:40:23.732Z,73479
2017-02-12T00:40:34.264Z,73477
2017-02-12T00:40:44.416Z,73481
2017-02-12T00:40:54.938Z,73480
2017-02-12T00:41:05.462Z,73482
2017-02-12T00:41:15.242Z,73480
2017-02-12T00:41:25.778Z,73479
2017-02-12T00:41:36.299Z,73478
2017-02-12T00:41:46.835Z,73480
2017-02-12T00:41:57.359Z,73482
2017-02-12T00:42:07.870Z,73476
2017-02-12T00:42:18.012Z,73479
2017-02-12T00:42:28.173Z,73480
2017-02-12T00:42:38.686Z,73479
2017-02-12T00:42:49.216Z,73479
2017-02-12T00:42:59.729Z,73481
2017-02-12T00:43:10.262Z,73482
2017-02-12T00:43:20.794Z,73478
2017-02-12T00:43:31.322Z,73480
2017-02-12T00:43:41.848Z,73480
2017-02-12T00:43:52.368Z,73481
2017-02-12T00:44:02.881Z,73481
2017-02-12T00:44:13.044Z,73482
2017-02-12T00:44:23.574Z,73481
2017-02-12T00:44:33.725Z,73481
2017-02-12T00:44:44.260Z,73481
2017-02-12T00:44:54.771Z,73482
2017-02-12T00:45:04.934Z,73485
2017-02-12T00:45:14.716Z,73482
2017-02-12T00:45:25.239Z,73483
2017-02-12T00:45:35.766Z,73484
2017-02-12T00:45:46.293Z,73483
2017-02-12T00:45:56.811Z,73481
2017-02-12T00:46:07.327Z,73482
2017-02-12T00:46:17.488Z,73483
2017-02-12T00:46:28.012Z,73482
2017-02-12T00:46:38.162Z,73480
2017-02-12T00:46:48.691Z,73481
2017-02-12T00:46:59.206Z,73479
2017-02-12T00:47:09.726Z,73483
2017-02-12T00:47:20.262Z,73482
2017-02-12T00:47:30.776Z,73481
2017-02-12T00:47:41.283Z,73483
2017-02-12T00:47:51.440Z,73483
2017-02-12T00:48:01.981Z,73483
2017-02-12T00:48:12.128Z,73479
2017-02-12T00:48:22.659Z,73482
2017-02-12T00:48:32.825Z,73482
2017-02-12T00:48:43.355Z,73484
2017-02-12T00:48:53.880Z,73485
2017-02-12T00:49:04.403Z,73484
2017-02-12T00:49:14.566Z,73486
2017-02-12T00:49:25.079Z,73489
2017-02-12T00:49:35.592Z,73487
2017-02-12T00:49:46.100Z,73485
2017-02-12T00:49:56.624Z,73490
2017-02-12T00:50:06.775Z,73483
2017-02-12T00:50:16.930Z,73485
2017-02-12T00:50:27.455Z,73489
2017-02-12T00:50:37.612Z,73487
2017-02-12T00:50:48.147Z,73485
2017-02-12T00:50:58.688Z,73485
2017-02-12T00:51:08.830Z,73487
2017-02-12T00:51:19.358Z,73486
2017-02-12T00:51:29.893Z,73485
2017-02-12T00:51:40.400Z,73483
2017-02-12T00:51:50.539Z,73488
2017-02-12T00:52:01.059Z,73486
2017-02-12T00:52:11.578Z,73484
2017-02-12T00:52:22.118Z,73485
2017-02-12T00:52:32.628Z,73488
2017-02-12T00:52:43.160Z,73490
2017-02-12T00:52:53.665Z,73484
2017-02-12T00:53:04.190Z,73488
2017-02-12T00:53:14.339Z,73487
2017-02-12T00:53:24.125Z,73488
2017-02-12T00:53:34.287Z,73487
2017-02-12T00:53:44.798Z,73486
2017-02-12T00:53:55.329Z,73486
2017-02-12T00:54:05.480Z,73489
2017-02-12T00:54:15.623Z,73488
2017-02-12T00:54:26.147Z,73487
2017-02-12T00:54:36.663Z,73488
2017-02-12T00:54:47.195Z,73492
2017-02-12T00:54:57.714Z,73491
2017-02-12T00:55:08.239Z,73492
2017-02-12T00:55:18.395Z,73491
2017-02-12T00:55:28.907Z,73488
2017-02-12T00:55:39.451Z,73491
2017-02-12T00:55:49.606Z,73491
2017-02-12T00:56:00.177Z,73490
2017-02-12T00:56:10.324Z,73490
2017-02-12T00:56:20.464Z,73489
2017-02-12T00:56:30.989Z,73489
2017-02-12T00:56:41.506Z,73488
2017-02-12T00:56:52.028Z,73494
2017-02-12T00:57:02.545Z,73493
2017-02-12T00:57:13.077Z,73492
2017-02-12T00:57:23.221Z,73491
2017-02-12T00:57:33.768Z,73493
2017-02-12T00:57:44.278Z,73492
2017-02-12T00:57:54.816Z,73493
2017-02-12T00:58:05.340Z,73491
2017-02-12T00:58:15.871Z,73492
2017-02-12T00:58:26.409Z,73493
2017-02-12T00:58:36.939Z,73491
2017-02-12T00:58:47.456Z,73495
2017-02-12T00:58:57.621Z,73489
2017-02-12T00:59:08.133Z,73493
2017-02-12T00:59:18.288Z,73496
2017-02-12T00:59:28.803Z,73493
2017-02-12T00:59:38.958Z,73496
2017-02-12T00:59:49.475Z,73493
2017-02-12T01:00:00.000Z,73490
2017-02-12T01:00:10.156Z,73493
2017-02-12T01:00:20.309Z,73490
2017-02-12T01:00:30.837Z,73491
2017-02-12T01:00:41.352Z,73493
2017-02-12T01:00:51.876Z,73495
2017-02-12T01:01:02.401Z,73492
2017-02-12T01:01:12.554Z,73490
2017-02-12T01:01:22.711Z,73492
2017-02-12T01:01:33.231Z,73493
2017-02-12T01:01:43.767Z,73493
2017-02-12T01:01:54.301Z,73493
2017-02-12T01:02:04.835Z,73497
2017-02-12T01:02:15.368Z,73495
2017-02-12T01:02:25.902Z,73495
2017-02-12T01:02:36.426Z,73498
2017-02-12T01:02:46.957Z,73497
2017-02-12T01:02:57.501Z,73496
2017-02-12T01:03:08.035Z,73500
2017-02-12T01:03:18.197Z,73495
2017-02-12T01:03:28.707Z,73493
2017-02-12T01:03:39.258Z,73501
2017-02-12T01:03:49.784Z,73497
2017-02-12T01:04:00.309Z,73499
2017-02-12T01:04:10.834Z,73497
2017-02-12T01:04:21.406Z,73496
2017-02-12T01:04:31.944Z,73497
2017-02-12T01:04:42.107Z,73500
2017-02-12T01:04:52.624Z,73500
2017-02-12T01:05:03.156Z,73501
2017-02-12T01:05:13.316Z,73499
2017-02-12T01:05:23.847Z,73496
2017-02-12T01:05:34.018Z,73500
2017-02-12T01:05:44.536Z,73498
2017-02-12T01:05:55.065Z,73500
2017-02-12T01:06:05.211Z,73498
2017-02-12T01:06:15.735Z,73495
2017-02-12T01:06:26.253Z,73501
2017-02-12T01:06:36.414Z,73500
2017-02-12T01:06:46.944Z,73501
2017-02-12T01:06:57.456Z,73500
2017-02-12T01:07:07.981Z,73494
2017-02-12T01:07:18.513Z,73495
2017-02-12T01:07:28.667Z,73496
2017-02-12T01:07:39.186Z,73495
2017-02-12T01:07:49.712Z,73496
2017-02-12T01:08:00.253Z,73500
2017-02-12T01:08:10.406Z,73498
2017-02-12T01:08:20.566Z,73495
2017-02-12T01:08:31.082Z,73497
2017-02-12T01:08:41.602Z,73496
2017-02-12T01:08:52.144Z,73497
2017-02-12T01:09:02.671Z,73498
2017-02-12T01:09:13.209Z,73498
2017-02-12T01:09:23.742Z,73499
2017-02-12T01:09:33.907Z,73496
2017-02-12T01:09:44.432Z,73499
2017-02-12T01:09:54.963Z,73496
2017-02-12T01:10:05.489Z,73499
2017-02-12T01:10:15.647Z,73499
2017-02-12T01:10:26.178Z,73496
2017-02-12T01:10:36.330Z,73494
2017-02-12T01:10:46.859Z,73494
2017-02-12T01:10:57.386Z,73496
2017-02-12T01:11:07.904Z,73495
2017-02-12T01:11:18.068Z,73495
2017-02-12T01:11:28.601Z,73497
2017-02-12T01:11:39.139Z,73496
2017-02-12T01:11:49.662Z,73495
2017-02-12T01:12:00.185Z,73496
2017-02-12T01:12:10.703Z,73499
2017-02-12T01:12:21.238Z,73499
2017-02-12T01:12:31.386Z,73497
2017-02-12T01:12:41.907Z,73494
2017-02-12T01:12:52.429Z,73497
2017-02-12T01:13:02.957Z,73496
2017-02-12T01:13:13.108Z,73500
2017-02-12T01:13:23.623Z,73499
2017-02-12T01:13:34.131Z,73501
2017-02-12T01:13:44.654Z,73498
2017-02-12T01:13:55.170Z,73499
2017-02-12T01:14:05.691Z,73500
2017-02-12T01:14:15.831Z,73499
2017-02-12T01:14:26.359Z,73502
2017-02-12T01:14:36.510Z,73501
2017-02-12T01:14:47.072Z,73498
2017-02-12T01:14:57.615Z,73497
2017-02-12T01:15:08.130Z,73499
2017-02-12T01:15:18.284Z,73504
2017-02-12T01:15:28.810Z,73499
2017-02-12T01:15:39.325Z,73501
2017-02-12T01:15:49.866Z,73498
2017-02-12T01:16:00.395Z,73502
2017-02-12T01:16:10.543Z,73501
2017-02-12T01:16:21.082Z,73503
2017-02-12T01:16:31.599Z,73507
2017-02-12T01:16:41.735Z,73503
2017-02-12T01:16:52.315Z,73500
2017-02-12T01:17:02.459Z,73501
2017-02-12T01:17:12.615Z,73503
2017-02-12T01:17:22.763Z,73503
2017-02-12T01:17:33.286Z,73501
2017-02-12T01:17:43.807Z,73500
2017-02-12T01:17:54.318Z,73501
2017-02-12T01:18:04.479Z,73501
2017-02-12T01:18:15.002Z,73502
2017-02-12T01:18:25.524Z,73507
2017-02-12T01:18:36.054Z,73508
2017-02-12T01:18:46.596Z,73501
2017-02-12T01:18:57.142Z,73506
2017-02-12T01:19:07.677Z,73510
2017-02-12T01:19:18.208Z,73509
2017-02-12T01:19:28.730Z,73509
2017-02-12T01:19:39.247Z,73509
2017-02-12T01:19:49.756Z,73509
2017-02-12T01:20:00.277Z,73508
2017-02-12T01:20:10.802Z,73506
2017-02-12T01:20:21.352Z,73505
2017-02-12T01:20:31.878Z,73504
2017-02-12T01:20:42.396Z,73506
2017-02-12T01:20:52.925Z,73501
2017-02-12T01:21:03.456Z,73502
2017-02-12T01:21:13.610Z,73502
2017-02-12T01:21:23.754Z,73503
2017-02-12T01:21:34.283Z,73502
2017-02-12T01:21:44.801Z,73502
2017-02-12T01:21:55.324Z,73500
2017-02-12T01:22:05.852Z,73502
2017-02-12T01:22:15.999Z,73503
2017-02-12T01:22:26.621Z,73505
2017-02-12T01:22:36.765Z,73507
2017-02-12T01:22:47.287Z,73507
2017-02-12T01:22:57.808Z,73505
2017-02-12T01:23:08.274Z,73506
2017-02-12T01:23:18.050Z,73506
2017-02-12T01:23:28.575Z,73505
2017-02-12T01:23:39.088Z,73504
2017-02-12T01:23:49.601Z,73506
2017-02-12T01:24:00.124Z,73505
2017-02-12T01:24:10.652Z,73507
2017-02-12T01:24:21.172Z,73503
2017-02-12T01:24:31.688Z,73503
2017-02-12T01:24:42.213Z,73505
2017-02-12T01:24:52.753Z,73504
2017-02-12T01:25:02.908Z,73503
2017-02-12T01:25:13.419Z,73497
2017-02-12T01:25:23.566Z,73500
2017-02-12T01:25:33.727Z,73500
2017-02-12T01:25:43.891Z,73500
2017-02-12T01:25:54.418Z,73501
2017-02-12T01:26:04.991Z,73504
2017-02-12T01:26:15.504Z,73504
2017-02-12T01:26:26.029Z,73508
2017-02-12T01:26:36.180Z,73507
2017-02-12T01:26:46.690Z,73502
2017-02-12T01:26:57.212Z,73507
2017-02-12T01:27:07.373Z,73505
2017-02-12T01:27:17.150Z,73503
2017-02-12T01:27:27.679Z,73501
2017-02-12T01:27:37.833Z,73503
2017-02-12T01:27:47.988Z,73504
2017-02-12T01:27:58.518Z,73504
2017-02-12T01:28:09.042Z,73507
2017-02-12T01:28:19.226Z,73505
2017-02-12T01:28:29.730Z,73500
2017-02-12T01:28:40.246Z,73501
2017-02-12T01:28:50.786Z,73500
2017-02-12T01:29:01.303Z,73502
2017-02-12T01:29:11.820Z,73500
2017-02-12T01:29:22.336Z,73502
2017-02-12T01:29:32.861Z,73501
2017-02-12T01:29:43.379Z,73504
2017-02-12T01:29:53.897Z,73504
2017-02-12T01:30:04.044Z,73504
2017-02-12T01:30:14.206Z,73503
2017-02-12T01:30:24.729Z,73506
2017-02-12T01:30:35.260Z,73502
2017-02-12T01:30:45.780Z,73502
2017-02-12T01:30:56.310Z,73504
2017-02-12T01:31:06.833Z,73505
2017-02-12T01:31:17.362Z,73502
2017-02-12T01:31:27.895Z,73505
2017-02-12T01:31:38.416Z,73504
2017-02-12T01:31:48.939Z,73502
2017-02-12T01:31:59.464Z,73501
2017-02-12T01:32:09.989Z,73498
2017-02-12T01:32:20.522Z,73501
2017-02-12T01:32:30.690Z,73503
2017-02-12T01:32:41.213Z,73504
2017-02-12T01:32:51.729Z,73505
2017-02-12T01:33:02.255Z,73504
2017-02-12T01:33:12.449Z,73504
2017-02-12T01:33:22.960Z,73503
2017-02-12T01:33:33.467Z,73507
2017-02-12T01:33:43.616Z,73504
2017-02-12T01:33:54.140Z,73504
2017-02-12T01:34:04.679Z,73505
2017-02-12T01:34:15.211Z,73506
2017-02-12T01:34:25.731Z,73507
2017-02-12T01:34:35.895Z,73510
2017-02-12T01:34:46.410Z,73504
2017-02-12T01:34:56.933Z,73506
2017-02-12T01:35:07.461Z,73504
2017-02-12T01:35:17.979Z,73505
2017-02-12T01:35:28.521Z,73506
2017-02-12T01:35:39.041Z,73508
2017-02-12T01:35:49.554Z,73505
2017-02-12T01:36:00.085Z,73505
2017-02-12T01:36:10.238Z,73504
2017-02-12T01:36:20.389Z,73508
2017-02-12T01:36:30.168Z,73508
2017-02-12T01:36:40.692Z,73506
2017-02-12T01:36:51.204Z,73510
2017-02-12T01:37:01.728Z,73504
2017-02-12T01:37:12.249Z,73503
2017-02-12T01:37:22.401Z,73501
2017-02-12T01:37:32.904Z,73503
2017-02-12T01:37:43.049Z,73504
2017-02-12T01:37:53.579Z,73506
2017-02-12T01:38:04.091Z,73502
2017-02-12T01:38:14.599Z,73506
2017-02-12T01:38:25.113Z,73511
2017-02-12T01:38:35.630Z,73508
2017-02-12T01:38:46.133Z,73512
2017-02-12T01:38:56.679Z,73510
2017-02-12T01:39:07.200Z,73506
2017-02-12T01:39:17.713Z,73505
2017-02-12T01:39:28.238Z,73502
2017-02-12T01:39:38.750Z,73504
2017-02-12T01:39:49.250Z,73504
2017-02-12T01:39:59.784Z,73499
2017-02-12T01:40:09.948Z,73503
2017-02-12T01:40:20.497Z,73499
2017-02-12T01:40:30.645Z,73499
2017-02-12T01:40:40.782Z,73498
2017-02-12T01:40:51.313Z,73500
2017-02-12T01:41:01.829Z,73497
2017-02-12T01:41:12.353Z,73498
2017-02-12T01:41:22.869Z,73498
2017-02-12T01:41:33.390Z,73498
2017-02-12T01:41:43.950Z,73502
2017-02-12T01:41:54.483Z,73504
2017-02-12T01:42:05.023Z,73503
2017-02-12T01:42:14.806Z,73506
2017-02-12T01:42:25.319Z,73507
2017-02-12T01:42:35.833Z,73507
2017-02-12T01:42:46.356Z,73508
2017-02-12T01:42:56.892Z,73501
2017-02-12T01:43:07.410Z,73509
2017-02-12T01:43:17.542Z,73512
2017-02-12T01:43:28.135Z,73509
2017-02-12T01:43:38.281Z,73512
2017-02-12T01:43:48.810Z,73512
2017-02-12T01:43:59.335Z,73517
2017-02-12T01:44:09.858Z,73507
2017-02-12T01:44:20.381Z,73507
2017-02-12T01:44:30.905Z,73504
2017-02-12T01:44:40.321Z,73501
2017-02-12T01:44:50.842Z,73500
2017-02-12T01:45:01.427Z,73504
2017-02-12T01:45:10.833Z,73508
2017-02-12T01:45:21.364Z,73504
2017-02-12T01:45:31.891Z,73503
2017-02-12T01:45:42.403Z,73504
2017-02-12T01:45:52.930Z,73505
2017-02-12T01:46:03.521Z,73508
2017-02-12T01:46:14.035Z,73505
2017-02-12T01:46:24.602Z,73504
2017-02-12T01:46:35.150Z,73510
2017-02-12T01:46:45.664Z,73509
2017-02-12T01:46:56.181Z,73513
2017-02-12T01:47:06.321Z,73509
2017-02-12T01:47:16.838Z,73508
2017-02-12T01:47:27.346Z,73507
2017-02-12T01:47:37.884Z,73508
2017-02-12T01:47:48.035Z,73504
2017-02-12T01:47:58.561Z,73503
2017-02-12T01:48:08.707Z,73505
2017-02-12T01:48:19.215Z,73504
2017-02-12T01:48:29.770Z,73504
2017-02-12T01:48:40.301Z,73503
2017-02-12T01:48:50.826Z,73503
2017-02-12T01:49:01.347Z,73502
2017-02-12T01:49:11.867Z,73504
2017-02-12T01:49:22.418Z,73507
2017-02-12T01:49:32.920Z,73508
2017-02-12T01:49:43.433Z,73503
2017-02-12T01:49:53.951Z,73501
2017-02-12T01:50:04.098Z,73497
2017-02-12T01:50:14.619Z,73505
2017-02-12T01:50:25.145Z,73505
2017-02-12T01:50:35.662Z,73504
2017-02-12T01:50:46.197Z,73503
2017-02-12T01:50:56.360Z,73494
2017-02-12T01:51:06.879Z,73497
2017-02-12T01:51:17.400Z,73500
2017-02-12T01:51:27.912Z,73501
2017-02-12T01:51:38.483Z,73497
2017-02-12T01:51:49.010Z,73502
2017-02-12T01:51:59.527Z,73497
2017-02-12T01:52:10.074Z,73500
2017-02-12T01:52:20.231Z,73501
2017-02-12T01:52:30.756Z,73505
2017-02-12T01:52:41.280Z,73510
2017-02-12T01:52:51.814Z,73506
2017-02-12T01:53:02.349Z,73501
2017-02-12T01:53:12.868Z,73501
2017-02-12T01:53:23.015Z,73501
2017-02-12T01:53:33.536Z,73501
2017-02-12T01:53:44.069Z,73502
2017-02-12T01:53:54.230Z,73503
2017-02-12T01:54:04.739Z,73503
2017-02-12T01:54:14.874Z,73501
2017-02-12T01:54:25.392Z,73504
2017-02-12T01:54:35.927Z,73500
2017-02-12T01:54:46.443Z,73502
2017-02-12T01:54:56.955Z,73509
2017-02-12T01:55:07.482Z,73506
2017-02-12T01:55:18.017Z,73505
2017-02-12T01:55:28.177Z,73504
2017-02-12T01:55:38.720Z,73504
2017-02-12T01:55:49.257Z,73506
2017-02-12T01:55:59.786Z,73501
2017-02-12T01:56:09.937Z,73505
2017-02-12T01:56:20.095Z,73505
2017-02-12T01:56:30.265Z,73506
2017-02-12T01:56:40.780Z,73504
2017-02-12T01:56:51.298Z,73504
2017-02-12T01:57:01.447Z,73506
2017-02-12T01:57:11.982Z,73507
2017-02-12T01:57:22.503Z,73503
2017-02-12T01:57:32.661Z,73504
2017-02-12T01:57:43.179Z,73501
2017-02-12T01:57:53.695Z,73504
2017-02-12T01:58:04.211Z,73505
2017-02-12T01:58:14.340Z,73506
2017-02-12T01:58:24.872Z,73502
2017-02-12T01:58:35.386Z,73501
2017-02-12T01:58:45.912Z,73504
2017-02-12T01:58:56.456Z,73502
2017-02-12T01:59:06.983Z,73501
2017-02-12T01:59:17.497Z,73504
2017-02-12T01:59:28.020Z,73502
2017-02-12T01:59:38.542Z,73501
2017-02-12T01:59:49.070Z,73503
2017-02-12T01:59:59.590Z,73502
2017-02-12T02:00:10.122Z,73503
2017-02-12T02:00:20.283Z,73500
2017-02-12T02:00:30.801Z,73503
2017-02-12T02:00:41.318Z,73501
2017-02-12T02:00:51.831Z,73501
2017-02-12T02:01:02.365Z,73498
2017-02-12T02:01:12.883Z,73505
2017-02-12T02:01:23.387Z,73505
2017-02-12T02:01:33.922Z,73501
2017-02-12T02:01:44.078Z,73506
2017-02-12T02:01:54.611Z,73505
2017-02-12T02:02:05.148Z,73508
2017-02-12T02:02:15.670Z,73506
2017-02-12T02:02:26.209Z,73505
2017-02-12T02:02:36.375Z,73502
2017-02-12T02:02:46.888Z,73505
2017-02-12T02:02:57.410Z,73506
2017-02-12T02:03:07.566Z,73507
2017-02-12T02:03:17.711Z,73509
2017-02-12T02:03:28.239Z,73506
2017-02-12T02:03:38.762Z,73512
2017-02-12T02:03:49.278Z,73512
2017-02-12T02:03:59.800Z,73511
2017-02-12T02:04:09.958Z,73506
2017-02-12T02:04:20.489Z,73507
2017-02-12T02:04:31.008Z,73505
2017-02-12T02:04:41.524Z,73505
2017-02-12T02:04:52.059Z,73503
2017-02-12T02:05:02.580Z,73505
2017-02-12T02:05:13.094Z,73504
2017-02-12T02:05:23.246Z,73504
2017-02-12T02:05:33.754Z,73498
2017-02-12T02:05:43.932Z,73502
2017-02-12T02:05:54.451Z,73500
2017-02-12T02:06:04.970Z,73503
2017-02-12T02:06:15.494Z,73503
2017-02-12T02:06:26.019Z,73506
2017-02-12T02:06:36.548Z,73502
2017-02-12T02:06:47.067Z,73503
2017-02-12T02:06:57.576Z,73507
2017-02-12T02:07:08.092Z,73506
2017-02-12T02:07:18.616Z,73507
2017-02-12T02:07:29.157Z,73504
2017-02-12T02:07:39.696Z,73504
2017-02-12T02:07:50.243Z,73504
2017-02-12T02:08:00.780Z,73504
2017-02-12T02:08:11.307Z,73508
2017-02-12T02:08:21.830Z,73503
2017-02-12T02:08:32.001Z,73505
2017-02-12T02:08:42.531Z,73503
2017-02-12T02:08:53.071Z,73507
2017-02-12T02:09:03.612Z,73502
2017-02-12T02:09:14.121Z,73502
2017-02-12T02:09:24.654Z,73505
2017-02-12T02:09:35.188Z,73502
2017-02-12T02:09:45.355Z,73502
2017-02-12T02:09:55.882Z,73506
2017-02-12T02:10:05.663Z,73497
2017-02-12T02:10:16.184Z,73499
2017-02-12T02:10:26.689Z,73502
2017-02-12T02:10:37.203Z,73496
2017-02-12T02:10:47.727Z,73496
2017-02-12T02:10:58.253Z,73491
2017-02-12T02:11:08.761Z,73487
2017-02-12T02:11:19.287Z,73488
2017-02-12T02:11:29.823Z,73491
2017-02-12T02:11:40.338Z,73485
2017-02-12T02:11:50.845Z,73488
2017-02-12T02:12:01.374Z,73493
2017-02-12T02:12:11.892Z,73495
2017-02-12T02:12:22.416Z,73494
2017-02-12T02:12:32.561Z,73492
2017-02-12T02:12:42.709Z,73499
2017-02-12T02:12:53.259Z,73498
2017-02-12T02:13:03.779Z,73499
2017-02-12T02:13:14.302Z,73507
2017-02-12T02:13:24.828Z,73504
2017-02-12T02:13:35.350Z,73501
2017-02-12T02:13:45.557Z,73499
2017-02-12T02:13:56.092Z,73497
2017-02-12T02:14:06.253Z,73497
2017-02-12T02:14:16.782Z,73501